sensor_id;sensor_type;location;lat;lon;timestamp;P1;durP1;ratioP1;P2;durP2;ratioP2
46719;SDS011;32452;51.382;-0.002;2023-12-14T00:00:51;14.38;;;3.53;;
46719;SDS011;32452;51.382;-0.002;2023-12-14T00:03:36;8.02;;;2.90;;
46719;SDS011;32452;51.382;-0.002;2023-12-14T00:06:23;10.45;;;3.17;;
46719;SDS011;32452;51.382;-0.002;2023-12-14T00:09:08;9.43;;;3.10;;
46719;SDS011;32452;51.382;-0.002;2023-12-14T00:11:54;5.32;;;2.90;;
46719;SDS011;32452;51.382;-0.002;2023-12-14T00:14:40;12.90;;;3.33;;
46719;SDS011;32452;51.382;-0.002;2023-12-14T00:17:25;10.30;;;3.10;;
46719;SDS011;32452;51.382;-0.002;2023-12-14T00:20:11;8.98;;;3.20;;
46719;SDS011;32452;51.382;-0.002;2023-12-14T00:22:56;11.02;;;3.10;;
46719;SDS011;32452;51.382;-0.002;2023-12-14T00:25:43;12.25;;;2.97;;
46719;SDS011;32452;51.382;-0.002;2023-12-14T00:28:29;12.25;;;2.97;;
46719;SDS011;32452;51.382;-0.002;2023-12-14T00:31:18;13.77;;;3.58;;
46719;SDS011;32452;51.382;-0.002;2023-12-14T00:34:04;10.48;;;3.70;;
46719;SDS011;32452;51.382;-0.002;2023-12-14T00:36:51;10.13;;;3.10;;
46719;SDS011;32452;51.382;-0.002;2023-12-14T00:39:37;11.68;;;3.40;;
46719;SDS011;32452;51.382;-0.002;2023-12-14T00:42:22;9.75;;;3.72;;
46719;SDS011;32452;51.382;-0.002;2023-12-14T00:45:08;5.53;;;2.72;;
46719;SDS011;32452;51.382;-0.002;2023-12-14T00:47:55;9.60;;;2.75;;
46719;SDS011;32452;51.382;-0.002;2023-12-14T00:50:40;10.10;;;2.75;;
46719;SDS011;32452;51.382;-0.002;2023-12-14T00:53:26;11.38;;;2.85;;
46719;SDS011;32452;51.382;-0.002;2023-12-14T00:56:12;10.50;;;2.65;;
46719;SDS011;32452;51.382;-0.002;2023-12-14T00:58:58;5.95;;;2.45;;
46719;SDS011;32452;51.382;-0.002;2023-12-14T01:01:44;11.10;;;2.72;;
46719;SDS011;32452;51.382;-0.002;2023-12-14T01:04:29;12.38;;;3.10;;
46719;SDS011;32452;51.382;-0.002;2023-12-14T01:07:15;9.02;;;2.72;;
46719;SDS011;32452;51.382;-0.002;2023-12-14T01:10:01;9.73;;;3.05;;
46719;SDS011;32452;51.382;-0.002;2023-12-14T01:12:46;12.55;;;4.93;;
46719;SDS011;32452;51.382;-0.002;2023-12-14T01:15:32;12.93;;;3.40;;
46719;SDS011;32452;51.382;-0.002;2023-12-14T01:18:18;10.27;;;3.17;;
46719;SDS011;32452;51.382;-0.002;2023-12-14T01:21:03;11.23;;;3.58;;
46719;SDS011;32452;51.382;-0.002;2023-12-14T01:23:49;9.75;;;3.63;;
46719;SDS011;32452;51.382;-0.002;2023-12-14T01:26:35;7.63;;;3.08;;
46719;SDS011;32452;51.382;-0.002;2023-12-14T01:29:20;9.77;;;2.65;;
46719;SDS011;32452;51.382;-0.002;2023-12-14T01:32:06;14.32;;;3.13;;
46719;SDS011;32452;51.382;-0.002;2023-12-14T01:34:52;11.45;;;5.13;;
46719;SDS011;32452;51.382;-0.002;2023-12-14T01:37:37;8.85;;;3.35;;
46719;SDS011;32452;51.382;-0.002;2023-12-14T01:40:23;17.10;;;4.40;;
46719;SDS011;32452;51.382;-0.002;2023-12-14T01:43:09;12.07;;;3.55;;
46719;SDS011;32452;51.382;-0.002;2023-12-14T01:45:57;10.20;;;3.42;;
46719;SDS011;32452;51.382;-0.002;2023-12-14T01:48:43;9.02;;;3.58;;
46719;SDS011;32452;51.382;-0.002;2023-12-14T01:51:28;10.50;;;3.72;;
46719;SDS011;32452;51.382;-0.002;2023-12-14T01:54:14;10.35;;;3.03;;
46719;SDS011;32452;51.382;-0.002;2023-12-14T01:57:00;13.00;;;4.05;;
46719;SDS011;32452;51.382;-0.002;2023-12-14T01:59:45;16.55;;;3.90;;
46719;SDS011;32452;51.382;-0.002;2023-12-14T02:02:31;8.70;;;3.22;;
46719;SDS011;32452;51.382;-0.002;2023-12-14T02:05:17;9.15;;;3.20;;
46719;SDS011;32452;51.382;-0.002;2023-12-14T02:08:03;11.15;;;3.33;;
46719;SDS011;32452;51.382;-0.002;2023-12-14T02:10:48;20.83;;;4.20;;
46719;SDS011;32452;51.382;-0.002;2023-12-14T02:13:34;10.80;;;3.25;;
46719;SDS011;32452;51.382;-0.002;2023-12-14T02:16:20;13.32;;;3.55;;
46719;SDS011;32452;51.382;-0.002;2023-12-14T02:19:05;11.13;;;2.90;;
46719;SDS011;32452;51.382;-0.002;2023-12-14T02:21:51;12.65;;;4.22;;
46719;SDS011;32452;51.382;-0.002;2023-12-14T02:24:37;14.95;;;3.38;;
46719;SDS011;32452;51.382;-0.002;2023-12-14T02:27:22;12.90;;;3.70;;
46719;SDS011;32452;51.382;-0.002;2023-12-14T02:30:08;14.18;;;3.75;;
46719;SDS011;32452;51.382;-0.002;2023-12-14T02:32:55;11.05;;;3.25;;
46719;SDS011;32452;51.382;-0.002;2023-12-14T02:35:40;14.52;;;3.72;;
46719;SDS011;32452;51.382;-0.002;2023-12-14T02:38:27;12.82;;;3.60;;
46719;SDS011;32452;51.382;-0.002;2023-12-14T02:41:13;10.10;;;3.60;;
46719;SDS011;32452;51.382;-0.002;2023-12-14T02:43:59;14.55;;;4.07;;
46719;SDS011;32452;51.382;-0.002;2023-12-14T02:46:44;12.15;;;3.53;;
46719;SDS011;32452;51.382;-0.002;2023-12-14T02:49:30;14.85;;;4.32;;
46719;SDS011;32452;51.382;-0.002;2023-12-14T02:52:16;14.25;;;4.93;;
46719;SDS011;32452;51.382;-0.002;2023-12-14T02:55:01;10.45;;;2.92;;
46719;SDS011;32452;51.382;-0.002;2023-12-14T02:57:47;11.38;;;4.78;;
46719;SDS011;32452;51.382;-0.002;2023-12-14T03:00:33;7.28;;;3.28;;
46719;SDS011;32452;51.382;-0.002;2023-12-14T03:06:48;10.65;;;3.67;;
46719;SDS011;32452;51.382;-0.002;2023-12-14T03:09:34;12.43;;;3.60;;
46719;SDS011;32452;51.382;-0.002;2023-12-14T03:12:19;12.23;;;3.15;;
46719;SDS011;32452;51.382;-0.002;2023-12-14T03:15:05;14.15;;;3.25;;
46719;SDS011;32452;51.382;-0.002;2023-12-14T03:17:51;10.05;;;3.40;;
46719;SDS011;32452;51.382;-0.002;2023-12-14T03:20:36;10.95;;;3.03;;
46719;SDS011;32452;51.382;-0.002;2023-12-14T03:23:22;13.15;;;3.53;;
46719;SDS011;32452;51.382;-0.002;2023-12-14T03:26:08;8.35;;;3.42;;
46719;SDS011;32452;51.382;-0.002;2023-12-14T03:28:53;8.95;;;3.28;;
46719;SDS011;32452;51.382;-0.002;2023-12-14T03:31:39;9.32;;;2.95;;
46719;SDS011;32452;51.382;-0.002;2023-12-14T03:34:25;11.65;;;3.22;;
46719;SDS011;32452;51.382;-0.002;2023-12-14T03:37:11;12.55;;;3.30;;
46719;SDS011;32452;51.382;-0.002;2023-12-14T03:39:56;13.18;;;3.78;;
46719;SDS011;32452;51.382;-0.002;2023-12-14T03:42:41;14.13;;;4.50;;
46719;SDS011;32452;51.382;-0.002;2023-12-14T03:45:27;11.52;;;3.47;;
46719;SDS011;32452;51.382;-0.002;2023-12-14T03:48:13;16.55;;;3.90;;
46719;SDS011;32452;51.382;-0.002;2023-12-14T03:51:02;10.60;;;3.20;;
46719;SDS011;32452;51.382;-0.002;2023-12-14T03:53:48;15.23;;;4.07;;
46719;SDS011;32452;51.382;-0.002;2023-12-14T03:56:34;9.90;;;3.30;;
46719;SDS011;32452;51.382;-0.002;2023-12-14T03:59:20;21.25;;;5.68;;
46719;SDS011;32452;51.382;-0.002;2023-12-14T04:02:05;11.57;;;3.85;;
46719;SDS011;32452;51.382;-0.002;2023-12-14T04:04:50;8.85;;;3.35;;
46719;SDS011;32452;51.382;-0.002;2023-12-14T04:07:36;10.40;;;4.45;;
46719;SDS011;32452;51.382;-0.002;2023-12-14T04:10:25;11.70;;;3.25;;
46719;SDS011;32452;51.382;-0.002;2023-12-14T04:13:11;11.23;;;3.50;;
46719;SDS011;32452;51.382;-0.002;2023-12-14T04:15:57;12.32;;;3.90;;
46719;SDS011;32452;51.382;-0.002;2023-12-14T04:18:42;12.43;;;4.63;;
46719;SDS011;32452;51.382;-0.002;2023-12-14T04:21:28;15.13;;;4.22;;
46719;SDS011;32452;51.382;-0.002;2023-12-14T04:24:14;10.15;;;3.97;;
46719;SDS011;32452;51.382;-0.002;2023-12-14T04:26:59;18.73;;;5.32;;
46719;SDS011;32452;51.382;-0.002;2023-12-14T04:29:45;13.27;;;4.55;;
46719;SDS011;32452;51.382;-0.002;2023-12-14T04:32:30;13.65;;;3.97;;
46719;SDS011;32452;51.382;-0.002;2023-12-14T04:35:16;14.35;;;4.40;;
46719;SDS011;32452;51.382;-0.002;2023-12-14T04:38:02;13.38;;;4.13;;
46719;SDS011;32452;51.382;-0.002;2023-12-14T04:40:48;10.07;;;3.78;;
46719;SDS011;32452;51.382;-0.002;2023-12-14T04:43:33;10.65;;;4.07;;
46719;SDS011;32452;51.382;-0.002;2023-12-14T04:46:19;20.75;;;6.95;;
46719;SDS011;32452;51.382;-0.002;2023-12-14T04:49:05;12.30;;;4.28;;
46719;SDS011;32452;51.382;-0.002;2023-12-14T04:51:50;13.00;;;3.53;;
46719;SDS011;32452;51.382;-0.002;2023-12-14T04:54:36;13.60;;;4.03;;
46719;SDS011;32452;51.382;-0.002;2023-12-14T04:57:23;14.35;;;5.00;;
46719;SDS011;32452;51.382;-0.002;2023-12-14T05:00:09;16.83;;;5.03;;
46719;SDS011;32452;51.382;-0.002;2023-12-14T05:02:55;11.55;;;4.20;;
46719;SDS011;32452;51.382;-0.002;2023-12-14T05:05:41;11.35;;;4.13;;
46719;SDS011;32452;51.382;-0.002;2023-12-14T05:08:26;17.23;;;5.13;;
46719;SDS011;32452;51.382;-0.002;2023-12-14T05:11:12;20.13;;;4.55;;
46719;SDS011;32452;51.382;-0.002;2023-12-14T05:13:58;13.18;;;4.03;;
46719;SDS011;32452;51.382;-0.002;2023-12-14T05:16:44;14.80;;;4.82;;
46719;SDS011;32452;51.382;-0.002;2023-12-14T05:19:31;12.52;;;5.38;;
46719;SDS011;32452;51.382;-0.002;2023-12-14T05:22:21;15.35;;;4.55;;
46719;SDS011;32452;51.382;-0.002;2023-12-14T05:25:07;12.15;;;4.70;;
46719;SDS011;32452;51.382;-0.002;2023-12-14T05:27:54;18.73;;;5.35;;
46719;SDS011;32452;51.382;-0.002;2023-12-14T05:30:39;16.50;;;5.07;;
46719;SDS011;32452;51.382;-0.002;2023-12-14T05:33:25;14.27;;;4.60;;
46719;SDS011;32452;51.382;-0.002;2023-12-14T05:36:11;14.20;;;5.05;;
46719;SDS011;32452;51.382;-0.002;2023-12-14T05:38:56;18.08;;;6.03;;
46719;SDS011;32452;51.382;-0.002;2023-12-14T05:41:43;13.75;;;4.90;;
46719;SDS011;32452;51.382;-0.002;2023-12-14T05:44:28;13.07;;;4.90;;
46719;SDS011;32452;51.382;-0.002;2023-12-14T05:47:14;15.32;;;4.82;;
46719;SDS011;32452;51.382;-0.002;2023-12-14T05:50:00;14.35;;;4.97;;
46719;SDS011;32452;51.382;-0.002;2023-12-14T05:52:46;18.40;;;5.03;;
46719;SDS011;32452;51.382;-0.002;2023-12-14T05:55:32;14.32;;;4.38;;
46719;SDS011;32452;51.382;-0.002;2023-12-14T05:58:17;15.98;;;4.28;;
46719;SDS011;32452;51.382;-0.002;2023-12-14T06:01:03;12.32;;;4.30;;
46719;SDS011;32452;51.382;-0.002;2023-12-14T06:03:49;15.70;;;4.78;;
46719;SDS011;32452;51.382;-0.002;2023-12-14T06:06:34;14.65;;;4.60;;
46719;SDS011;32452;51.382;-0.002;2023-12-14T06:09:24;14.77;;;4.57;;
46719;SDS011;32452;51.382;-0.002;2023-12-14T06:12:16;15.73;;;4.63;;
46719;SDS011;32452;51.382;-0.002;2023-12-14T06:15:03;16.40;;;5.32;;
46719;SDS011;32452;51.382;-0.002;2023-12-14T06:17:49;17.08;;;4.75;;
46719;SDS011;32452;51.382;-0.002;2023-12-14T06:20:35;17.08;;;5.07;;
46719;SDS011;32452;51.382;-0.002;2023-12-14T06:23:20;14.35;;;3.95;;
46719;SDS011;32452;51.382;-0.002;2023-12-14T06:26:07;14.57;;;4.72;;
46719;SDS011;32452;51.382;-0.002;2023-12-14T06:28:52;16.55;;;5.22;;
46719;SDS011;32452;51.382;-0.002;2023-12-14T06:31:38;16.90;;;4.72;;
46719;SDS011;32452;51.382;-0.002;2023-12-14T06:34:24;15.02;;;4.28;;
46719;SDS011;32452;51.382;-0.002;2023-12-14T06:37:10;14.43;;;4.38;;
46719;SDS011;32452;51.382;-0.002;2023-12-14T06:39:56;15.07;;;3.92;;
46719;SDS011;32452;51.382;-0.002;2023-12-14T06:42:41;12.75;;;3.97;;
46719;SDS011;32452;51.382;-0.002;2023-12-14T06:45:27;15.52;;;4.82;;
46719;SDS011;32452;51.382;-0.002;2023-12-14T06:48:13;14.15;;;4.53;;
46719;SDS011;32452;51.382;-0.002;2023-12-14T06:50:58;15.45;;;4.65;;
46719;SDS011;32452;51.382;-0.002;2023-12-14T06:53:44;14.63;;;4.20;;
46719;SDS011;32452;51.382;-0.002;2023-12-14T06:56:30;13.88;;;4.78;;
46719;SDS011;32452;51.382;-0.002;2023-12-14T06:59:16;17.35;;;4.60;;
46719;SDS011;32452;51.382;-0.002;2023-12-14T07:02:01;15.05;;;5.25;;
46719;SDS011;32452;51.382;-0.002;2023-12-14T07:04:47;12.20;;;4.43;;
46719;SDS011;32452;51.382;-0.002;2023-12-14T07:07:34;13.35;;;4.75;;
46719;SDS011;32452;51.382;-0.002;2023-12-14T07:10:19;14.07;;;4.40;;
46719;SDS011;32452;51.382;-0.002;2023-12-14T07:13:05;12.50;;;5.03;;
46719;SDS011;32452;51.382;-0.002;2023-12-14T07:15:51;15.75;;;4.38;;
46719;SDS011;32452;51.382;-0.002;2023-12-14T07:18:37;14.07;;;4.55;;
46719;SDS011;32452;51.382;-0.002;2023-12-14T07:21:24;14.35;;;4.28;;
46719;SDS011;32452;51.382;-0.002;2023-12-14T07:24:10;15.40;;;4.50;;
46719;SDS011;32452;51.382;-0.002;2023-12-14T07:27:01;16.42;;;5.20;;
46719;SDS011;32452;51.382;-0.002;2023-12-14T07:29:50;12.88;;;3.80;;
46719;SDS011;32452;51.382;-0.002;2023-12-14T07:32:36;14.48;;;3.58;;
46719;SDS011;32452;51.382;-0.002;2023-12-14T07:35:23;13.88;;;3.97;;
46719;SDS011;32452;51.382;-0.002;2023-12-14T07:38:09;10.35;;;4.18;;
46719;SDS011;32452;51.382;-0.002;2023-12-14T07:40:56;11.63;;;3.75;;
46719;SDS011;32452;51.382;-0.002;2023-12-14T07:43:43;13.18;;;3.83;;
46719;SDS011;32452;51.382;-0.002;2023-12-14T07:46:29;15.50;;;4.65;;
46719;SDS011;32452;51.382;-0.002;2023-12-14T07:49:14;16.05;;;3.35;;
46719;SDS011;32452;51.382;-0.002;2023-12-14T07:52:00;8.02;;;3.30;;
46719;SDS011;32452;51.382;-0.002;2023-12-14T07:54:46;9.60;;;3.58;;
46719;SDS011;32452;51.382;-0.002;2023-12-14T07:57:32;12.27;;;3.63;;
46719;SDS011;32452;51.382;-0.002;2023-12-14T08:00:17;11.38;;;3.80;;
46719;SDS011;32452;51.382;-0.002;2023-12-14T08:03:07;15.63;;;3.83;;
46719;SDS011;32452;51.382;-0.002;2023-12-14T08:06:00;9.50;;;3.50;;
46719;SDS011;32452;51.382;-0.002;2023-12-14T08:08:46;12.93;;;3.47;;
46719;SDS011;32452;51.382;-0.002;2023-12-14T08:11:31;9.43;;;3.00;;
46719;SDS011;32452;51.382;-0.002;2023-12-14T08:14:18;17.00;;;4.45;;
46719;SDS011;32452;51.382;-0.002;2023-12-14T08:17:04;13.43;;;4.95;;
46719;SDS011;32452;51.382;-0.002;2023-12-14T08:19:50;12.85;;;3.80;;
46719;SDS011;32452;51.382;-0.002;2023-12-14T08:22:36;9.75;;;3.78;;
46719;SDS011;32452;51.382;-0.002;2023-12-14T08:25:22;12.35;;;3.97;;
46719;SDS011;32452;51.382;-0.002;2023-12-14T08:28:08;11.57;;;3.25;;
46719;SDS011;32452;51.382;-0.002;2023-12-14T08:30:53;10.73;;;3.92;;
46719;SDS011;32452;51.382;-0.002;2023-12-14T08:33:43;9.77;;;3.20;;
46719;SDS011;32452;51.382;-0.002;2023-12-14T08:39:19;12.32;;;3.00;;
46719;SDS011;32452;51.382;-0.002;2023-12-14T08:42:04;11.38;;;3.35;;
46719;SDS011;32452;51.382;-0.002;2023-12-14T08:44:50;9.13;;;2.33;;
46719;SDS011;32452;51.382;-0.002;2023-12-14T08:47:35;20.30;;;4.15;;
46719;SDS011;32452;51.382;-0.002;2023-12-14T08:50:21;14.18;;;3.75;;
46719;SDS011;32452;51.382;-0.002;2023-12-14T08:53:07;12.10;;;3.00;;
46719;SDS011;32452;51.382;-0.002;2023-12-14T08:55:54;8.95;;;2.58;;
46719;SDS011;32452;51.382;-0.002;2023-12-14T08:58:39;9.90;;;2.78;;
46719;SDS011;32452;51.382;-0.002;2023-12-14T09:01:25;8.80;;;2.83;;
46719;SDS011;32452;51.382;-0.002;2023-12-14T09:04:11;11.77;;;3.25;;
46719;SDS011;32452;51.382;-0.002;2023-12-14T09:06:57;11.05;;;3.00;;
46719;SDS011;32452;51.382;-0.002;2023-12-14T09:09:43;11.02;;;3.20;;
46719;SDS011;32452;51.382;-0.002;2023-12-14T09:12:29;7.68;;;2.60;;
46719;SDS011;32452;51.382;-0.002;2023-12-14T09:15:15;9.63;;;3.03;;
46719;SDS011;32452;51.382;-0.002;2023-12-14T09:18:00;10.32;;;3.75;;
46719;SDS011;32452;51.382;-0.002;2023-12-14T09:20:46;12.75;;;4.40;;
46719;SDS011;32452;51.382;-0.002;2023-12-14T09:23:31;10.85;;;3.25;;
46719;SDS011;32452;51.382;-0.002;2023-12-14T09:26:17;12.48;;;4.10;;
46719;SDS011;32452;51.382;-0.002;2023-12-14T09:29:03;14.73;;;3.60;;
46719;SDS011;32452;51.382;-0.002;2023-12-14T09:31:48;12.30;;;2.63;;
46719;SDS011;32452;51.382;-0.002;2023-12-14T09:34:35;9.45;;;2.90;;
46719;SDS011;32452;51.382;-0.002;2023-12-14T09:37:21;10.65;;;3.17;;
46719;SDS011;32452;51.382;-0.002;2023-12-14T09:40:07;9.38;;;2.47;;
46719;SDS011;32452;51.382;-0.002;2023-12-14T09:42:53;10.95;;;2.83;;
46719;SDS011;32452;51.382;-0.002;2023-12-14T09:45:40;11.07;;;3.22;;
46719;SDS011;32452;51.382;-0.002;2023-12-14T09:48:30;9.88;;;2.60;;
46719;SDS011;32452;51.382;-0.002;2023-12-14T09:51:16;6.45;;;2.75;;
46719;SDS011;32452;51.382;-0.002;2023-12-14T09:54:02;9.55;;;1.98;;
46719;SDS011;32452;51.382;-0.002;2023-12-14T09:56:48;8.32;;;2.13;;
46719;SDS011;32452;51.382;-0.002;2023-12-14T09:59:35;6.25;;;1.83;;
46719;SDS011;32452;51.382;-0.002;2023-12-14T10:02:25;9.57;;;1.73;;
46719;SDS011;32452;51.382;-0.002;2023-12-14T10:05:12;6.70;;;1.95;;
46719;SDS011;32452;51.382;-0.002;2023-12-14T10:07:58;7.55;;;1.65;;
46719;SDS011;32452;51.382;-0.002;2023-12-14T10:10:44;4.07;;;1.65;;
46719;SDS011;32452;51.382;-0.002;2023-12-14T10:13:37;6.53;;;1.67;;
46719;SDS011;32452;51.382;-0.002;2023-12-14T10:16:31;6.97;;;2.67;;
46719;SDS011;32452;51.382;-0.002;2023-12-14T10:19:18;10.07;;;2.03;;
46719;SDS011;32452;51.382;-0.002;2023-12-14T10:22:04;8.13;;;2.20;;
46719;SDS011;32452;51.382;-0.002;2023-12-14T10:24:53;6.72;;;1.88;;
46719;SDS011;32452;51.382;-0.002;2023-12-14T10:27:39;5.88;;;1.85;;
46719;SDS011;32452;51.382;-0.002;2023-12-14T10:30:25;9.57;;;2.60;;
46719;SDS011;32452;51.382;-0.002;2023-12-14T10:33:12;6.00;;;1.67;;
46719;SDS011;32452;51.382;-0.002;2023-12-14T10:36:01;4.75;;;1.65;;
46719;SDS011;32452;51.382;-0.002;2023-12-14T10:38:48;7.00;;;2.00;;
46719;SDS011;32452;51.382;-0.002;2023-12-14T10:41:37;7.72;;;1.90;;
46719;SDS011;32452;51.382;-0.002;2023-12-14T10:44:25;5.82;;;1.40;;
46719;SDS011;32452;51.382;-0.002;2023-12-14T10:47:32;9.93;;;1.73;;
46719;SDS011;32452;51.382;-0.002;2023-12-14T10:50:20;8.95;;;2.05;;
46719;SDS011;32452;51.382;-0.002;2023-12-14T10:53:06;5.60;;;1.60;;
46719;SDS011;32452;51.382;-0.002;2023-12-14T10:55:53;5.00;;;1.85;;
46719;SDS011;32452;51.382;-0.002;2023-12-14T10:58:46;16.73;;;3.25;;
46719;SDS011;32452;51.382;-0.002;2023-12-14T11:04:22;6.50;;;1.83;;
46719;SDS011;32452;51.382;-0.002;2023-12-14T11:07:07;7.25;;;1.55;;
46719;SDS011;32452;51.382;-0.002;2023-12-14T11:09:55;7.60;;;2.05;;
46719;SDS011;32452;51.382;-0.002;2023-12-14T11:12:51;11.63;;;2.85;;
46719;SDS011;32452;51.382;-0.002;2023-12-14T11:15:40;6.00;;;2.03;;
46719;SDS011;32452;51.382;-0.002;2023-12-14T11:18:36;6.53;;;2.17;;
46719;SDS011;32452;51.382;-0.002;2023-12-14T11:21:21;12.50;;;2.75;;
46719;SDS011;32452;51.382;-0.002;2023-12-14T11:24:09;8.60;;;2.20;;
46719;SDS011;32452;51.382;-0.002;2023-12-14T11:26:55;6.90;;;2.40;;
46719;SDS011;32452;51.382;-0.002;2023-12-14T11:29:41;6.72;;;2.38;;
46719;SDS011;32452;51.382;-0.002;2023-12-14T11:32:27;6.88;;;1.92;;
46719;SDS011;32452;51.382;-0.002;2023-12-14T11:35:13;3.95;;;2.03;;
46719;SDS011;32452;51.382;-0.002;2023-12-14T11:37:59;7.43;;;2.33;;
46719;SDS011;32452;51.382;-0.002;2023-12-14T11:40:47;13.43;;;2.85;;
46719;SDS011;32452;51.382;-0.002;2023-12-14T11:43:40;10.40;;;2.40;;
46719;SDS011;32452;51.382;-0.002;2023-12-14T11:46:30;5.68;;;2.38;;
46719;SDS011;32452;51.382;-0.002;2023-12-14T11:49:16;5.90;;;2.55;;
46719;SDS011;32452;51.382;-0.002;2023-12-14T11:52:02;7.15;;;2.22;;
46719;SDS011;32452;51.382;-0.002;2023-12-14T11:54:49;9.32;;;2.55;;
46719;SDS011;32452;51.382;-0.002;2023-12-14T11:57:35;7.75;;;2.33;;
46719;SDS011;32452;51.382;-0.002;2023-12-14T12:00:28;6.60;;;2.03;;
46719;SDS011;32452;51.382;-0.002;2023-12-14T12:03:15;9.63;;;2.67;;
46719;SDS011;32452;51.382;-0.002;2023-12-14T12:06:04;6.65;;;2.40;;
46719;SDS011;32452;51.382;-0.002;2023-12-14T12:08:51;9.75;;;2.55;;
46719;SDS011;32452;51.382;-0.002;2023-12-14T12:11:36;13.27;;;2.72;;
46719;SDS011;32452;51.382;-0.002;2023-12-14T12:14:22;6.53;;;2.47;;
46719;SDS011;32452;51.382;-0.002;2023-12-14T12:17:08;7.43;;;2.53;;
46719;SDS011;32452;51.382;-0.002;2023-12-14T12:19:55;7.88;;;2.53;;
46719;SDS011;32452;51.382;-0.002;2023-12-14T12:22:40;8.23;;;2.58;;
46719;SDS011;32452;51.382;-0.002;2023-12-14T12:25:26;8.68;;;2.90;;
46719;SDS011;32452;51.382;-0.002;2023-12-14T12:28:12;12.23;;;2.75;;
46719;SDS011;32452;51.382;-0.002;2023-12-14T12:30:58;7.97;;;2.47;;
46719;SDS011;32452;51.382;-0.002;2023-12-14T12:33:44;12.35;;;3.28;;
46719;SDS011;32452;51.382;-0.002;2023-12-14T12:36:30;9.75;;;3.63;;
46719;SDS011;32452;51.382;-0.002;2023-12-14T12:39:16;10.07;;;3.65;;
46719;SDS011;32452;51.382;-0.002;2023-12-14T12:42:01;7.28;;;2.40;;
46719;SDS011;32452;51.382;-0.002;2023-12-14T12:44:47;8.90;;;2.88;;
46719;SDS011;32452;51.382;-0.002;2023-12-14T12:47:33;9.70;;;3.28;;
46719;SDS011;32452;51.382;-0.002;2023-12-14T12:50:19;11.48;;;3.03;;
46719;SDS011;32452;51.382;-0.002;2023-12-14T12:53:05;12.93;;;4.05;;
46719;SDS011;32452;51.382;-0.002;2023-12-14T12:55:51;9.45;;;4.90;;
46719;SDS011;32452;51.382;-0.002;2023-12-14T12:58:37;12.25;;;4.70;;
46719;SDS011;32452;51.382;-0.002;2023-12-14T13:01:23;11.65;;;5.78;;
46719;SDS011;32452;51.382;-0.002;2023-12-14T13:04:20;18.52;;;8.55;;
46719;SDS011;32452;51.382;-0.002;2023-12-14T13:07:06;13.70;;;7.03;;
46719;SDS011;32452;51.382;-0.002;2023-12-14T13:09:52;16.63;;;5.85;;
46719;SDS011;32452;51.382;-0.002;2023-12-14T13:12:37;13.77;;;5.22;;
46719;SDS011;32452;51.382;-0.002;2023-12-14T13:15:23;11.27;;;4.88;;
46719;SDS011;32452;51.382;-0.002;2023-12-14T13:18:13;10.48;;;3.50;;
46719;SDS011;32452;51.382;-0.002;2023-12-14T13:21:01;13.63;;;4.18;;
46719;SDS011;32452;51.382;-0.002;2023-12-14T13:23:47;6.97;;;3.00;;
46719;SDS011;32452;51.382;-0.002;2023-12-14T13:26:33;11.18;;;4.20;;
46719;SDS011;32452;51.382;-0.002;2023-12-14T13:29:18;11.18;;;3.60;;
46719;SDS011;32452;51.382;-0.002;2023-12-14T13:32:05;11.00;;;3.45;;
46719;SDS011;32452;51.382;-0.002;2023-12-14T13:34:51;12.68;;;3.72;;
46719;SDS011;32452;51.382;-0.002;2023-12-14T13:37:37;13.95;;;4.03;;
46719;SDS011;32452;51.382;-0.002;2023-12-14T13:40:23;7.55;;;3.03;;
46719;SDS011;32452;51.382;-0.002;2023-12-14T13:43:10;10.77;;;3.35;;
46719;SDS011;32452;51.382;-0.002;2023-12-14T13:45:56;8.88;;;2.97;;
46719;SDS011;32452;51.382;-0.002;2023-12-14T13:49:02;8.27;;;3.22;;
46719;SDS011;32452;51.382;-0.002;2023-12-14T13:51:48;11.68;;;3.83;;
46719;SDS011;32452;51.382;-0.002;2023-12-14T13:54:33;14.30;;;4.43;;
46719;SDS011;32452;51.382;-0.002;2023-12-14T13:57:22;10.57;;;4.47;;
46719;SDS011;32452;51.382;-0.002;2023-12-14T14:00:08;11.73;;;3.90;;
46719;SDS011;32452;51.382;-0.002;2023-12-14T14:02:54;10.13;;;4.18;;
46719;SDS011;32452;51.382;-0.002;2023-12-14T14:05:40;8.25;;;4.07;;
46719;SDS011;32452;51.382;-0.002;2023-12-14T14:08:26;14.70;;;4.47;;
46719;SDS011;32452;51.382;-0.002;2023-12-14T14:11:11;17.38;;;6.32;;
46719;SDS011;32452;51.382;-0.002;2023-12-14T14:13:57;15.45;;;6.47;;
46719;SDS011;32452;51.382;-0.002;2023-12-14T14:16:43;16.83;;;6.75;;
46719;SDS011;32452;51.382;-0.002;2023-12-14T14:19:28;12.45;;;4.95;;
46719;SDS011;32452;51.382;-0.002;2023-12-14T14:22:14;13.10;;;4.63;;
46719;SDS011;32452;51.382;-0.002;2023-12-14T14:25:00;15.82;;;5.00;;
46719;SDS011;32452;51.382;-0.002;2023-12-14T14:27:45;13.23;;;5.15;;
46719;SDS011;32452;51.382;-0.002;2023-12-14T14:30:32;12.63;;;5.30;;
46719;SDS011;32452;51.382;-0.002;2023-12-14T14:33:17;11.95;;;5.10;;
46719;SDS011;32452;51.382;-0.002;2023-12-14T14:36:03;12.45;;;5.40;;
46719;SDS011;32452;51.382;-0.002;2023-12-14T14:38:50;11.65;;;5.00;;
46719;SDS011;32452;51.382;-0.002;2023-12-14T14:41:38;15.48;;;5.68;;
46719;SDS011;32452;51.382;-0.002;2023-12-14T14:44:24;15.07;;;5.60;;
46719;SDS011;32452;51.382;-0.002;2023-12-14T14:47:10;11.73;;;5.82;;
46719;SDS011;32452;51.382;-0.002;2023-12-14T14:49:56;13.85;;;6.43;;
46719;SDS011;32452;51.382;-0.002;2023-12-14T14:52:47;23.38;;;6.47;;
46719;SDS011;32452;51.382;-0.002;2023-12-14T14:55:33;12.95;;;5.95;;
46719;SDS011;32452;51.382;-0.002;2023-12-14T14:58:19;19.98;;;7.82;;
46719;SDS011;32452;51.382;-0.002;2023-12-14T15:01:05;14.40;;;5.60;;
46719;SDS011;32452;51.382;-0.002;2023-12-14T15:03:51;16.45;;;5.43;;
46719;SDS011;32452;51.382;-0.002;2023-12-14T15:06:36;17.30;;;6.47;;
46719;SDS011;32452;51.382;-0.002;2023-12-14T15:09:22;16.35;;;6.03;;
46719;SDS011;32452;51.382;-0.002;2023-12-14T15:12:08;11.05;;;5.63;;
46719;SDS011;32452;51.382;-0.002;2023-12-14T15:14:53;11.75;;;5.45;;
46719;SDS011;32452;51.382;-0.002;2023-12-14T15:17:40;14.02;;;6.10;;
46719;SDS011;32452;51.382;-0.002;2023-12-14T15:20:26;14.88;;;6.03;;
46719;SDS011;32452;51.382;-0.002;2023-12-14T15:23:12;13.05;;;7.38;;
46719;SDS011;32452;51.382;-0.002;2023-12-14T15:25:59;13.48;;;7.32;;
46719;SDS011;32452;51.382;-0.002;2023-12-14T15:28:45;14.57;;;6.97;;
46719;SDS011;32452;51.382;-0.002;2023-12-14T15:31:30;14.98;;;6.97;;
46719;SDS011;32452;51.382;-0.002;2023-12-14T15:34:18;19.27;;;8.95;;
46719;SDS011;32452;51.382;-0.002;2023-12-14T15:37:03;13.00;;;6.72;;
46719;SDS011;32452;51.382;-0.002;2023-12-14T15:39:49;17.00;;;6.97;;
46719;SDS011;32452;51.382;-0.002;2023-12-14T15:42:35;12.27;;;7.10;;
46719;SDS011;32452;51.382;-0.002;2023-12-14T15:45:21;14.00;;;6.60;;
46719;SDS011;32452;51.382;-0.002;2023-12-14T15:48:07;17.13;;;7.53;;
46719;SDS011;32452;51.382;-0.002;2023-12-14T15:50:52;14.15;;;7.38;;
46719;SDS011;32452;51.382;-0.002;2023-12-14T15:53:38;16.13;;;8.13;;
46719;SDS011;32452;51.382;-0.002;2023-12-14T15:56:24;14.38;;;7.47;;
46719;SDS011;32452;51.382;-0.002;2023-12-14T15:59:11;14.80;;;8.43;;
46719;SDS011;32452;51.382;-0.002;2023-12-14T16:01:57;14.85;;;8.10;;
46719;SDS011;32452;51.382;-0.002;2023-12-14T16:04:44;15.57;;;7.97;;
46719;SDS011;32452;51.382;-0.002;2023-12-14T16:07:30;17.23;;;7.28;;
46719;SDS011;32452;51.382;-0.002;2023-12-14T16:10:15;15.10;;;8.40;;
46719;SDS011;32452;51.382;-0.002;2023-12-14T16:13:01;14.43;;;7.18;;
46719;SDS011;32452;51.382;-0.002;2023-12-14T16:15:46;17.83;;;8.38;;
46719;SDS011;32452;51.382;-0.002;2023-12-14T16:18:32;13.70;;;8.13;;
46719;SDS011;32452;51.382;-0.002;2023-12-14T16:21:17;14.15;;;7.93;;
46719;SDS011;32452;51.382;-0.002;2023-12-14T16:24:03;15.60;;;7.43;;
46719;SDS011;32452;51.382;-0.002;2023-12-14T16:26:50;15.50;;;9.05;;